sensor_id;sensor_type;location;lat;lon;timestamp;P1;durP1;ratioP1;P2;durP2;ratioP2
59587;SDS011;45412;54.472;18.464;2023-02-28T00:01:52;45.90;;;14.60;;
59587;SDS011;45412;54.472;18.464;2023-02-28T00:04:40;68.20;;;18.60;;
59587;SDS011;45412;54.472;18.464;2023-02-28T00:07:28;51.90;;;16.00;;
59587;SDS011;45412;54.472;18.464;2023-02-28T00:10:18;48.80;;;15.30;;
59587;SDS011;45412;54.472;18.464;2023-02-28T00:13:08;57.30;;;19.00;;
59587;SDS011;45412;54.472;18.464;2023-02-28T00:16:04;48.40;;;17.10;;
59587;SDS011;45412;54.472;18.464;2023-02-28T00:19:03;48.50;;;15.30;;
59587;SDS011;45412;54.472;18.464;2023-02-28T00:21:51;56.70;;;17.30;;
59587;SDS011;45412;54.472;18.464;2023-02-28T00:24:38;48.10;;;14.90;;
59587;SDS011;45412;54.472;18.464;2023-02-28T00:27:26;42.70;;;15.10;;
59587;SDS011;45412;54.472;18.464;2023-02-28T00:30:18;41.90;;;15.70;;
59587;SDS011;45412;54.472;18.464;2023-02-28T00:33:08;38.90;;;14.40;;
59587;SDS011;45412;54.472;18.464;2023-02-28T00:36:05;38.40;;;13.60;;
59587;SDS011;45412;54.472;18.464;2023-02-28T00:38:56;32.10;;;12.70;;
59587;SDS011;45412;54.472;18.464;2023-02-28T00:41:44;32.70;;;11.50;;
59587;SDS011;45412;54.472;18.464;2023-02-28T00:44:33;32.40;;;13.30;;
59587;SDS011;45412;54.472;18.464;2023-02-28T00:47:21;31.20;;;12.20;;
59587;SDS011;45412;54.472;18.464;2023-02-28T00:50:09;34.50;;;12.40;;
59587;SDS011;45412;54.472;18.464;2023-02-28T00:52:58;28.40;;;12.10;;
59587;SDS011;45412;54.472;18.464;2023-02-28T00:55:48;30.00;;;12.10;;
59587;SDS011;45412;54.472;18.464;2023-02-28T00:58:37;27.60;;;11.80;;
59587;SDS011;45412;54.472;18.464;2023-02-28T01:01:24;38.50;;;13.10;;
59587;SDS011;45412;54.472;18.464;2023-02-28T01:04:13;40.80;;;13.80;;
59587;SDS011;45412;54.472;18.464;2023-02-28T01:07:02;31.90;;;12.50;;
59587;SDS011;45412;54.472;18.464;2023-02-28T01:09:50;26.90;;;12.40;;
59587;SDS011;45412;54.472;18.464;2023-02-28T01:12:38;30.90;;;11.90;;
59587;SDS011;45412;54.472;18.464;2023-02-28T01:15:26;28.30;;;10.90;;
59587;SDS011;45412;54.472;18.464;2023-02-28T01:18:14;26.20;;;10.70;;
59587;SDS011;45412;54.472;18.464;2023-02-28T01:21:06;28.50;;;10.40;;
59587;SDS011;45412;54.472;18.464;2023-02-28T01:23:57;23.00;;;9.30;;
59587;SDS011;45412;54.472;18.464;2023-02-28T01:26:45;24.60;;;9.10;;
59587;SDS011;45412;54.472;18.464;2023-02-28T01:29:33;21.20;;;8.20;;
59587;SDS011;45412;54.472;18.464;2023-02-28T01:32:21;19.50;;;6.80;;
59587;SDS011;45412;54.472;18.464;2023-02-28T01:35:09;16.60;;;6.30;;
59587;SDS011;45412;54.472;18.464;2023-02-28T01:37:57;21.30;;;8.30;;
59587;SDS011;45412;54.472;18.464;2023-02-28T01:41:03;24.00;;;8.60;;
59587;SDS011;45412;54.472;18.464;2023-02-28T01:43:54;19.00;;;7.60;;
59587;SDS011;45412;54.472;18.464;2023-02-28T01:46:45;18.60;;;6.90;;
59587;SDS011;45412;54.472;18.464;2023-02-28T01:49:34;19.10;;;7.00;;
59587;SDS011;45412;54.472;18.464;2023-02-28T01:52:22;23.00;;;7.80;;
59587;SDS011;45412;54.472;18.464;2023-02-28T01:55:13;21.70;;;8.20;;
59587;SDS011;45412;54.472;18.464;2023-02-28T01:58:04;18.70;;;5.70;;
59587;SDS011;45412;54.472;18.464;2023-02-28T02:00:54;20.10;;;8.00;;
59587;SDS011;45412;54.472;18.464;2023-02-28T02:03:42;19.00;;;7.70;;
59587;SDS011;45412;54.472;18.464;2023-02-28T02:06:36;17.90;;;6.20;;
59587;SDS011;45412;54.472;18.464;2023-02-28T02:09:29;17.30;;;6.90;;
59587;SDS011;45412;54.472;18.464;2023-02-28T02:12:51;16.60;;;6.30;;
59587;SDS011;45412;54.472;18.464;2023-02-28T02:15:54;22.00;;;6.60;;
59587;SDS011;45412;54.472;18.464;2023-02-28T02:19:44;21.00;;;7.00;;
59587;SDS011;45412;54.472;18.464;2023-02-28T02:39:25;16.40;;;5.80;;
59587;SDS011;45412;54.472;18.464;2023-02-28T02:42:51;16.60;;;5.70;;
59587;SDS011;45412;54.472;18.464;2023-02-28T02:45:44;18.50;;;6.30;;
59587;SDS011;45412;54.472;18.464;2023-02-28T02:48:37;15.30;;;5.80;;
59587;SDS011;45412;54.472;18.464;2023-02-28T02:51:28;17.80;;;6.30;;
59587;SDS011;45412;54.472;18.464;2023-02-28T02:54:31;16.80;;;5.60;;
59587;SDS011;45412;54.472;18.464;2023-02-28T02:57:30;15.20;;;5.00;;
59587;SDS011;45412;54.472;18.464;2023-02-28T03:00:29;12.90;;;5.30;;
59587;SDS011;45412;54.472;18.464;2023-02-28T03:03:22;16.20;;;6.10;;
59587;SDS011;45412;54.472;18.464;2023-02-28T03:06:16;15.90;;;6.00;;
59587;SDS011;45412;54.472;18.464;2023-02-28T03:09:04;16.30;;;6.00;;
59587;SDS011;45412;54.472;18.464;2023-02-28T03:11:54;15.80;;;5.90;;
59587;SDS011;45412;54.472;18.464;2023-02-28T03:15:01;15.00;;;5.30;;
59587;SDS011;45412;54.472;18.464;2023-02-28T03:18:06;15.10;;;5.70;;
59587;SDS011;45412;54.472;18.464;2023-02-28T03:27:29;16.10;;;4.50;;
59587;SDS011;45412;54.472;18.464;2023-02-28T03:30:39;13.40;;;5.30;;
59587;SDS011;45412;54.472;18.464;2023-02-28T03:33:36;14.30;;;4.30;;
59587;SDS011;45412;54.472;18.464;2023-02-28T03:36:32;18.10;;;5.60;;
59587;SDS011;45412;54.472;18.464;2023-02-28T03:39:40;18.80;;;6.20;;
59587;SDS011;45412;54.472;18.464;2023-02-28T03:42:33;12.90;;;5.10;;
59587;SDS011;45412;54.472;18.464;2023-02-28T03:45:26;17.60;;;6.60;;
59587;SDS011;45412;54.472;18.464;2023-02-28T03:48:25;15.80;;;5.60;;
59587;SDS011;45412;54.472;18.464;2023-02-28T03:51:19;17.20;;;4.90;;
59587;SDS011;45412;54.472;18.464;2023-02-28T03:54:17;14.10;;;5.00;;
59587;SDS011;45412;54.472;18.464;2023-02-28T04:00:35;14.40;;;5.30;;
59587;SDS011;45412;54.472;18.464;2023-02-28T04:03:27;9.30;;;3.30;;
59587;SDS011;45412;54.472;18.464;2023-02-28T04:06:20;11.90;;;4.40;;
59587;SDS011;45412;54.472;18.464;2023-02-28T04:09:13;14.00;;;5.60;;
59587;SDS011;45412;54.472;18.464;2023-02-28T04:12:02;18.70;;;6.10;;
59587;SDS011;45412;54.472;18.464;2023-02-28T04:14:50;15.10;;;6.00;;
59587;SDS011;45412;54.472;18.464;2023-02-28T04:17:38;15.00;;;5.60;;
59587;SDS011;45412;54.472;18.464;2023-02-28T04:20:26;13.50;;;5.00;;
59587;SDS011;45412;54.472;18.464;2023-02-28T04:23:14;13.60;;;5.30;;
59587;SDS011;45412;54.472;18.464;2023-02-28T04:26:03;11.70;;;4.00;;
59587;SDS011;45412;54.472;18.464;2023-02-28T04:28:51;12.00;;;4.90;;
59587;SDS011;45412;54.472;18.464;2023-02-28T04:31:39;13.10;;;4.50;;
59587;SDS011;45412;54.472;18.464;2023-02-28T04:34:29;13.10;;;4.20;;
59587;SDS011;45412;54.472;18.464;2023-02-28T04:37:19;11.00;;;3.90;;
59587;SDS011;45412;54.472;18.464;2023-02-28T04:40:08;11.20;;;4.10;;
59587;SDS011;45412;54.472;18.464;2023-02-28T04:42:56;15.30;;;4.50;;
59587;SDS011;45412;54.472;18.464;2023-02-28T04:45:44;20.30;;;5.30;;
59587;SDS011;45412;54.472;18.464;2023-02-28T04:48:35;13.70;;;5.20;;
59587;SDS011;45412;54.472;18.464;2023-02-28T04:51:24;12.90;;;5.00;;
59587;SDS011;45412;54.472;18.464;2023-02-28T04:54:11;14.40;;;5.50;;
59587;SDS011;45412;54.472;18.464;2023-02-28T04:57:00;16.20;;;5.10;;
59587;SDS011;45412;54.472;18.464;2023-02-28T04:59:48;13.30;;;4.80;;
59587;SDS011;45412;54.472;18.464;2023-02-28T05:02:37;15.60;;;5.40;;
59587;SDS011;45412;54.472;18.464;2023-02-28T05:05:26;15.90;;;5.00;;
59587;SDS011;45412;54.472;18.464;2023-02-28T05:08:14;13.90;;;5.20;;
59587;SDS011;45412;54.472;18.464;2023-02-28T05:11:03;11.40;;;3.50;;
59587;SDS011;45412;54.472;18.464;2023-02-28T05:13:52;11.60;;;4.50;;
59587;SDS011;45412;54.472;18.464;2023-02-28T05:16:41;14.10;;;5.30;;
59587;SDS011;45412;54.472;18.464;2023-02-28T05:19:30;14.60;;;5.00;;
59587;SDS011;45412;54.472;18.464;2023-02-28T05:22:18;12.20;;;5.30;;
59587;SDS011;45412;54.472;18.464;2023-02-28T05:25:06;16.30;;;5.30;;
59587;SDS011;45412;54.472;18.464;2023-02-28T05:27:55;12.00;;;4.90;;
59587;SDS011;45412;54.472;18.464;2023-02-28T05:30:44;12.80;;;5.10;;
59587;SDS011;45412;54.472;18.464;2023-02-28T05:33:31;10.30;;;4.10;;
59587;SDS011;45412;54.472;18.464;2023-02-28T05:36:20;13.20;;;4.20;;
59587;SDS011;45412;54.472;18.464;2023-02-28T05:39:09;10.70;;;4.10;;
59587;SDS011;45412;54.472;18.464;2023-02-28T05:42:00;12.90;;;4.10;;
59587;SDS011;45412;54.472;18.464;2023-02-28T05:44:49;12.40;;;3.80;;
59587;SDS011;45412;54.472;18.464;2023-02-28T05:47:38;12.50;;;4.30;;
59587;SDS011;45412;54.472;18.464;2023-02-28T05:50:26;12.80;;;4.40;;
59587;SDS011;45412;54.472;18.464;2023-02-28T05:53:14;13.80;;;4.30;;
59587;SDS011;45412;54.472;18.464;2023-02-28T05:56:04;12.60;;;4.20;;
59587;SDS011;45412;54.472;18.464;2023-02-28T05:58:53;13.40;;;4.50;;
59587;SDS011;45412;54.472;18.464;2023-02-28T06:01:42;10.80;;;4.30;;
59587;SDS011;45412;54.472;18.464;2023-02-28T06:04:37;12.30;;;4.80;;
59587;SDS011;45412;54.472;18.464;2023-02-28T06:07:24;12.90;;;5.20;;
59587;SDS011;45412;54.472;18.464;2023-02-28T06:10:13;15.10;;;6.00;;
59587;SDS011;45412;54.472;18.464;2023-02-28T06:13:02;13.00;;;4.70;;
59587;SDS011;45412;54.472;18.464;2023-02-28T06:15:50;14.30;;;5.60;;
59587;SDS011;45412;54.472;18.464;2023-02-28T06:18:38;18.30;;;6.10;;
59587;SDS011;45412;54.472;18.464;2023-02-28T06:21:26;19.40;;;6.90;;
59587;SDS011;45412;54.472;18.464;2023-02-28T06:24:16;16.70;;;6.60;;
59587;SDS011;45412;54.472;18.464;2023-02-28T06:27:04;16.10;;;6.50;;
59587;SDS011;45412;54.472;18.464;2023-02-28T06:29:55;15.60;;;5.60;;
59587;SDS011;45412;54.472;18.464;2023-02-28T06:32:43;17.10;;;6.70;;
59587;SDS011;45412;54.472;18.464;2023-02-28T06:35:31;15.80;;;6.10;;
59587;SDS011;45412;54.472;18.464;2023-02-28T06:38:19;17.30;;;6.30;;
59587;SDS011;45412;54.472;18.464;2023-02-28T06:41:07;13.50;;;5.20;;
59587;SDS011;45412;54.472;18.464;2023-02-28T06:43:56;13.80;;;5.30;;
59587;SDS011;45412;54.472;18.464;2023-02-28T06:46:45;15.10;;;4.90;;
59587;SDS011;45412;54.472;18.464;2023-02-28T06:49:34;12.40;;;5.00;;
59587;SDS011;45412;54.472;18.464;2023-02-28T06:52:22;12.40;;;5.40;;
59587;SDS011;45412;54.472;18.464;2023-02-28T06:55:10;14.00;;;5.70;;
59587;SDS011;45412;54.472;18.464;2023-02-28T06:57:58;17.70;;;6.20;;
59587;SDS011;45412;54.472;18.464;2023-02-28T07:00:50;15.40;;;5.60;;
59587;SDS011;45412;54.472;18.464;2023-02-28T07:03:39;14.00;;;5.40;;
59587;SDS011;45412;54.472;18.464;2023-02-28T07:06:27;13.70;;;5.60;;
59587;SDS011;45412;54.472;18.464;2023-02-28T07:09:15;12.80;;;4.80;;
59587;SDS011;45412;54.472;18.464;2023-02-28T07:12:04;13.00;;;4.80;;
59587;SDS011;45412;54.472;18.464;2023-02-28T07:14:52;11.70;;;4.50;;
59587;SDS011;45412;54.472;18.464;2023-02-28T07:17:40;12.50;;;4.90;;
59587;SDS011;45412;54.472;18.464;2023-02-28T07:20:28;13.70;;;4.70;;
59587;SDS011;45412;54.472;18.464;2023-02-28T07:23:16;14.50;;;5.40;;
59587;SDS011;45412;54.472;18.464;2023-02-28T07:26:10;12.60;;;5.10;;
59587;SDS011;45412;54.472;18.464;2023-02-28T07:29:02;13.10;;;5.50;;
59587;SDS011;45412;54.472;18.464;2023-02-28T07:31:50;13.30;;;6.10;;
59587;SDS011;45412;54.472;18.464;2023-02-28T07:34:40;12.70;;;5.50;;
59587;SDS011;45412;54.472;18.464;2023-02-28T07:37:28;12.30;;;5.00;;
59587;SDS011;45412;54.472;18.464;2023-02-28T07:40:18;12.40;;;5.10;;
59587;SDS011;45412;54.472;18.464;2023-02-28T07:43:07;13.60;;;5.30;;
59587;SDS011;45412;54.472;18.464;2023-02-28T07:45:55;10.60;;;4.70;;
59587;SDS011;45412;54.472;18.464;2023-02-28T07:48:48;11.10;;;5.00;;
59587;SDS011;45412;54.472;18.464;2023-02-28T07:51:36;10.80;;;5.00;;
59587;SDS011;45412;54.472;18.464;2023-02-28T07:54:24;11.10;;;4.90;;
59587;SDS011;45412;54.472;18.464;2023-02-28T07:57:11;12.80;;;5.30;;
59587;SDS011;45412;54.472;18.464;2023-02-28T07:59:59;11.20;;;5.30;;
59587;SDS011;45412;54.472;18.464;2023-02-28T08:02:57;13.20;;;5.80;;
59587;SDS011;45412;54.472;18.464;2023-02-28T08:05:45;10.80;;;5.00;;
59587;SDS011;45412;54.472;18.464;2023-02-28T08:08:35;15.60;;;9.20;;
59587;SDS011;45412;54.472;18.464;2023-02-28T08:11:23;12.40;;;6.00;;
59587;SDS011;45412;54.472;18.464;2023-02-28T08:14:11;12.40;;;6.90;;
59587;SDS011;45412;54.472;18.464;2023-02-28T08:16:59;13.40;;;6.50;;
59587;SDS011;45412;54.472;18.464;2023-02-28T08:19:47;10.80;;;5.50;;
59587;SDS011;45412;54.472;18.464;2023-02-28T08:22:35;11.50;;;5.80;;
59587;SDS011;45412;54.472;18.464;2023-02-28T08:25:23;12.40;;;6.80;;
59587;SDS011;45412;54.472;18.464;2023-02-28T08:28:11;10.80;;;5.30;;
59587;SDS011;45412;54.472;18.464;2023-02-28T08:30:59;10.70;;;5.40;;
59587;SDS011;45412;54.472;18.464;2023-02-28T08:33:47;10.80;;;5.20;;
59587;SDS011;45412;54.472;18.464;2023-02-28T08:36:39;13.20;;;5.80;;
59587;SDS011;45412;54.472;18.464;2023-02-28T08:39:28;10.40;;;4.80;;
59587;SDS011;45412;54.472;18.464;2023-02-28T08:42:16;11.20;;;4.60;;
59587;SDS011;45412;54.472;18.464;2023-02-28T08:45:04;11.20;;;4.50;;
59587;SDS011;45412;54.472;18.464;2023-02-28T08:47:54;9.70;;;4.20;;
59587;SDS011;45412;54.472;18.464;2023-02-28T08:50:42;10.40;;;4.10;;
59587;SDS011;45412;54.472;18.464;2023-02-28T08:53:38;9.20;;;3.40;;
59587;SDS011;45412;54.472;18.464;2023-02-28T08:56:28;8.90;;;3.70;;
59587;SDS011;45412;54.472;18.464;2023-02-28T08:59:16;9.20;;;4.00;;
59587;SDS011;45412;54.472;18.464;2023-02-28T09:02:03;11.10;;;5.00;;
59587;SDS011;45412;54.472;18.464;2023-02-28T09:04:51;10.50;;;4.70;;
59587;SDS011;45412;54.472;18.464;2023-02-28T09:07:39;12.00;;;5.10;;
59587;SDS011;45412;54.472;18.464;2023-02-28T09:10:28;12.00;;;5.60;;
59587;SDS011;45412;54.472;18.464;2023-02-28T09:13:15;12.30;;;5.80;;
59587;SDS011;45412;54.472;18.464;2023-02-28T09:16:05;11.70;;;5.50;;
59587;SDS011;45412;54.472;18.464;2023-02-28T09:18:55;11.70;;;5.40;;
59587;SDS011;45412;54.472;18.464;2023-02-28T09:21:43;12.30;;;5.10;;
59587;SDS011;45412;54.472;18.464;2023-02-28T09:24:31;11.80;;;5.40;;
59587;SDS011;45412;54.472;18.464;2023-02-28T09:27:20;12.00;;;5.00;;
59587;SDS011;45412;54.472;18.464;2023-02-28T09:30:08;12.10;;;4.40;;
59587;SDS011;45412;54.472;18.464;2023-02-28T09:32:57;12.20;;;4.90;;
59587;SDS011;45412;54.472;18.464;2023-02-28T09:35:45;11.50;;;4.90;;
59587;SDS011;45412;54.472;18.464;2023-02-28T09:38:33;10.80;;;4.60;;
59587;SDS011;45412;54.472;18.464;2023-02-28T09:41:25;11.20;;;4.70;;
59587;SDS011;45412;54.472;18.464;2023-02-28T09:44:33;12.10;;;4.50;;
59587;SDS011;45412;54.472;18.464;2023-02-28T09:47:29;10.60;;;4.40;;
59587;SDS011;45412;54.472;18.464;2023-02-28T09:53:34;10.40;;;4.60;;
59587;SDS011;45412;54.472;18.464;2023-02-28T09:56:36;9.90;;;4.40;;
59587;SDS011;45412;54.472;18.464;2023-02-28T09:59:53;9.50;;;4.30;;
59587;SDS011;45412;54.472;18.464;2023-02-28T10:06:14;11.30;;;4.60;;
59587;SDS011;45412;54.472;18.464;2023-02-28T10:09:13;10.00;;;4.40;;
59587;SDS011;45412;54.472;18.464;2023-02-28T10:12:06;9.70;;;4.50;;
59587;SDS011;45412;54.472;18.464;2023-02-28T10:14:57;9.80;;;4.50;;
59587;SDS011;45412;54.472;18.464;2023-02-28T10:17:47;11.40;;;4.40;;
59587;SDS011;45412;54.472;18.464;2023-02-28T10:20:54;10.00;;;4.40;;
59587;SDS011;45412;54.472;18.464;2023-02-28T10:23:44;11.50;;;5.90;;
59587;SDS011;45412;54.472;18.464;2023-02-28T10:26:35;8.60;;;4.10;;
59587;SDS011;45412;54.472;18.464;2023-02-28T10:29:24;9.50;;;4.20;;
59587;SDS011;45412;54.472;18.464;2023-02-28T10:32:20;10.50;;;4.90;;
59587;SDS011;45412;54.472;18.464;2023-02-28T10:38:08;9.50;;;4.30;;
59587;SDS011;45412;54.472;18.464;2023-02-28T10:41:09;10.60;;;4.80;;
59587;SDS011;45412;54.472;18.464;2023-02-28T10:44:14;10.60;;;4.70;;
59587;SDS011;45412;54.472;18.464;2023-02-28T10:47:14;9.20;;;4.20;;
59587;SDS011;45412;54.472;18.464;2023-02-28T10:50:28;11.30;;;4.40;;
59587;SDS011;45412;54.472;18.464;2023-02-28T10:59:23;12.40;;;5.00;;
59587;SDS011;45412;54.472;18.464;2023-02-28T11:02:36;13.40;;;5.30;;
59587;SDS011;45412;54.472;18.464;2023-02-28T11:05:32;11.00;;;5.10;;
59587;SDS011;45412;54.472;18.464;2023-02-28T11:08:22;10.10;;;4.70;;
59587;SDS011;45412;54.472;18.464;2023-02-28T11:11:11;9.30;;;4.40;;
59587;SDS011;45412;54.472;18.464;2023-02-28T11:14:04;8.60;;;4.20;;
59587;SDS011;45412;54.472;18.464;2023-02-28T11:16:54;9.20;;;4.40;;
59587;SDS011;45412;54.472;18.464;2023-02-28T11:19:49;10.50;;;4.80;;
59587;SDS011;45412;54.472;18.464;2023-02-28T11:22:43;9.50;;;4.10;;
59587;SDS011;45412;54.472;18.464;2023-02-28T11:25:35;9.70;;;4.30;;
59587;SDS011;45412;54.472;18.464;2023-02-28T11:31:17;8.20;;;3.50;;
59587;SDS011;45412;54.472;18.464;2023-02-28T11:34:33;9.60;;;4.20;;
59587;SDS011;45412;54.472;18.464;2023-02-28T11:37:22;8.60;;;3.40;;
59587;SDS011;45412;54.472;18.464;2023-02-28T11:40:15;8.10;;;3.30;;
59587;SDS011;45412;54.472;18.464;2023-02-28T11:46:50;8.50;;;3.40;;
59587;SDS011;45412;54.472;18.464;2023-02-28T11:50:16;9.10;;;3.60;;
59587;SDS011;45412;54.472;18.464;2023-02-28T11:56:48;10.40;;;4.20;;
59587;SDS011;45412;54.472;18.464;2023-02-28T12:06:17;10.00;;;4.00;;
59587;SDS011;45412;54.472;18.464;2023-02-28T12:12:22;8.50;;;3.30;;
59587;SDS011;45412;54.472;18.464;2023-02-28T12:15:49;7.80;;;2.70;;
59587;SDS011;45412;54.472;18.464;2023-02-28T12:19:11;9.70;;;3.30;;
59587;SDS011;45412;54.472;18.464;2023-02-28T12:29:04;8.40;;;2.50;;
59587;SDS011;45412;54.472;18.464;2023-02-28T12:32:33;8.40;;;2.50;;
59587;SDS011;45412;54.472;18.464;2023-02-28T12:35:29;11.50;;;3.20;;
59587;SDS011;45412;54.472;18.464;2023-02-28T12:38:30;11.20;;;3.20;;
59587;SDS011;45412;54.472;18.464;2023-02-28T12:41:41;12.20;;;3.70;;
59587;SDS011;45412;54.472;18.464;2023-02-28T12:47:38;10.90;;;3.00;;
59587;SDS011;45412;54.472;18.464;2023-02-28T12:50:28;9.60;;;2.60;;
59587;SDS011;45412;54.472;18.464;2023-02-28T12:59:54;10.90;;;3.10;;
59587;SDS011;45412;54.472;18.464;2023-02-28T13:10:05;10.50;;;3.90;;
59587;SDS011;45412;54.472;18.464;2023-02-28T13:12:55;10.40;;;3.30;;
59587;SDS011;45412;54.472;18.464;2023-02-28T13:19:07;12.80;;;3.90;;
59587;SDS011;45412;54.472;18.464;2023-02-28T13:21:58;11.30;;;3.20;;
59587;SDS011;45412;54.472;18.464;2023-02-28T13:24:49;10.40;;;3.50;;
59587;SDS011;45412;54.472;18.464;2023-02-28T13:27:39;10.40;;;4.00;;
59587;SDS011;45412;54.472;18.464;2023-02-28T13:36:46;12.10;;;4.20;;
59587;SDS011;45412;54.472;18.464;2023-02-28T13:42:35;10.50;;;4.10;;
59587;SDS011;45412;54.472;18.464;2023-02-28T13:45:34;14.60;;;4.90;;
59587;SDS011;45412;54.472;18.464;2023-02-28T13:48:27;12.50;;;4.60;;
59587;SDS011;45412;54.472;18.464;2023-02-28T13:57:39;14.30;;;5.10;;
59587;SDS011;45412;54.472;18.464;2023-02-28T14:04:21;17.10;;;6.70;;
59587;SDS011;45412;54.472;18.464;2023-02-28T14:07:23;18.20;;;7.50;;
59587;SDS011;45412;54.472;18.464;2023-02-28T14:10:35;15.30;;;6.80;;
59587;SDS011;45412;54.472;18.464;2023-02-28T14:13:45;15.40;;;5.50;;
59587;SDS011;45412;54.472;18.464;2023-02-28T14:19:32;12.50;;;4.50;;
59587;SDS011;45412;54.472;18.464;2023-02-28T14:26:18;11.20;;;4.20;;
59587;SDS011;45412;54.472;18.464;2023-02-28T14:29:28;12.00;;;3.90;;
59587;SDS011;45412;54.472;18.464;2023-02-28T14:41:42;12.20;;;4.00;;
59587;SDS011;45412;54.472;18.464;2023-02-28T14:44:31;11.60;;;3.90;;
59587;SDS011;45412;54.472;18.464;2023-02-28T14:47:19;11.00;;;4.10;;
59587;SDS011;45412;54.472;18.464;2023-02-28T14:50:38;13.70;;;4.80;;
59587;SDS011;45412;54.472;18.464;2023-02-28T14:53:29;12.30;;;4.40;;
59587;SDS011;45412;54.472;18.464;2023-02-28T14:56:25;14.10;;;4.60;;
59587;SDS011;45412;54.472;18.464;2023-02-28T14:59:34;12.20;;;4.30;;
59587;SDS011;45412;54.472;18.464;2023-02-28T15:02:25;14.40;;;4.90;;
59587;SDS011;45412;54.472;18.464;2023-02-28T15:05:29;13.70;;;4.60;;
59587;SDS011;45412;54.472;18.464;2023-02-28T15:08:19;13.60;;;5.30;;
59587;SDS011;45412;54.472;18.464;2023-02-28T15:14:04;12.00;;;4.30;;
59587;SDS011;45412;54.472;18.464;2023-02-28T15:16:56;9.90;;;4.20;;
59587;SDS011;45412;54.472;18.464;2023-02-28T15:19:53;10.90;;;3.80;;
59587;SDS011;45412;54.472;18.464;2023-02-28T15:22:42;13.40;;;5.00;;
59587;SDS011;45412;54.472;18.464;2023-02-28T15:25:33;10.70;;;3.90;;
59587;SDS011;45412;54.472;18.464;2023-02-28T15:28:22;12.10;;;4.20;;
59587;SDS011;45412;54.472;18.464;2023-02-28T15:31:28;11.50;;;4.30;;
59587;SDS011;45412;54.472;18.464;2023-02-28T15:43:22;11.70;;;4.50;;
59587;SDS011;45412;54.472;18.464;2023-02-28T15:46:12;10.90;;;4.50;;
59587;SDS011;45412;54.472;18.464;2023-02-28T15:49:01;12.40;;;4.50;;
59587;SDS011;45412;54.472;18.464;2023-02-28T15:51:51;13.50;;;4.80;;
59587;SDS011;45412;54.472;18.464;2023-02-28T15:54:41;12.50;;;5.10;;
59587;SDS011;45412;54.472;18.464;2023-02-28T15:57:30;12.80;;;4.60;;
59587;SDS011;45412;54.472;18.464;2023-02-28T16:00:21;14.60;;;5.10;;
59587;SDS011;45412;54.472;18.464;2023-02-28T16:03:27;12.80;;;4.40;;
59587;SDS011;45412;54.472;18.464;2023-02-28T16:06:38;11.70;;;4.00;;
59587;SDS011;45412;54.472;18.464;2023-02-28T16:09:29;12.70;;;4.20;;
59587;SDS011;45412;54.472;18.464;2023-02-28T16:12:26;12.10;;;4.50;;
59587;SDS011;45412;54.472;18.464;2023-02-28T16:15:21;11.80;;;4.40;;
59587;SDS011;45412;54.472;18.464;2023-02-28T16:18:18;12.10;;;4.60;;
59587;SDS011;45412;54.472;18.464;2023-02-28T16:21:06;13.00;;;5.70;;
59587;SDS011;45412;54.472;18.464;2023-02-28T16:23:56;18.30;;;6.60;;
59587;SDS011;45412;54.472;18.464;2023-02-28T16:26:46;14.90;;;6.00;;
59587;SDS011;45412;54.472;18.464;2023-02-28T16:29:36;18.40;;;7.40;;
59587;SDS011;45412;54.472;18.464;2023-02-28T16:32:25;18.20;;;7.10;;
59587;SDS011;45412;54.472;18.464;2023-02-28T16:35:13;22.70;;;7.70;;
59587;SDS011;45412;54.472;18.464;2023-02-28T16:38:01;15.40;;;6.60;;
59587;SDS011;45412;54.472;18.464;2023-02-28T16:40:50;18.90;;;6.90;;
59587;SDS011;45412;54.472;18.464;2023-02-28T16:43:39;18.60;;;6.30;;
59587;SDS011;45412;54.472;18.464;2023-02-28T16:46:30;20.10;;;7.70;;
59587;SDS011;45412;54.472;18.464;2023-02-28T16:49:22;21.90;;;7.90;;
59587;SDS011;45412;54.472;18.464;2023-02-28T16:52:11;19.40;;;7.10;;
59587;SDS011;45412;54.472;18.464;2023-02-28T16:55:01;20.30;;;7.90;;
59587;SDS011;45412;54.472;18.464;2023-02-28T16:57:59;22.90;;;8.00;;
59587;SDS011;45412;54.472;18.464;2023-02-28T17:00:48;21.40;;;8.30;;
59587;SDS011;45412;54.472;18.464;2023-02-28T17:03:36;20.90;;;8.30;;
59587;SDS011;45412;54.472;18.464;2023-02-28T17:06:27;24.50;;;8.80;;
59587;SDS011;45412;54.472;18.464;2023-02-28T17:09:22;21.80;;;8.50;;
59587;SDS011;45412;54.472;18.464;2023-02-28T17:12:26;25.60;;;8.80;;
59587;SDS011;45412;54.472;18.464;2023-02-28T17:15:15;21.00;;;8.30;;
59587;SDS011;45412;54.472;18.464;2023-02-28T17:18:04;43.10;;;13.50;;
59587;SDS011;45412;54.472;18.464;2023-02-28T17:20:53;42.80;;;13.60;;
59587;SDS011;45412;54.472;18.464;2023-02-28T17:23:41;58.70;;;17.70;;
59587;SDS011;45412;54.472;18.464;2023-02-28T17:26:29;42.50;;;14.50;;
59587;SDS011;45412;54.472;18.464;2023-02-28T17:29:20;42.00;;;13.70;;
59587;SDS011;45412;54.472;18.464;2023-02-28T17:32:09;46.10;;;14.00;;
59587;SDS011;45412;54.472;18.464;2023-02-28T17:35:05;34.30;;;11.30;;
59587;SDS011;45412;54.472;18.464;2023-02-28T17:37:53;30.50;;;10.10;;
59587;SDS011;45412;54.472;18.464;2023-02-28T17:40:41;33.10;;;11.00;;
59587;SDS011;45412;54.472;18.464;2023-02-28T17:43:29;30.70;;;10.40;;
59587;SDS011;45412;54.472;18.464;2023-02-28T17:46:22;31.70;;;11.00;;
59587;SDS011;45412;54.472;18.464;2023-02-28T17:49:11;26.60;;;9.90;;
59587;SDS011;45412;54.472;18.464;2023-02-28T17:51:59;25.30;;;9.40;;
59587;SDS011;45412;54.472;18.464;2023-02-28T17:54:47;23.00;;;8.90;;
59587;SDS011;45412;54.472;18.464;2023-02-28T17:57:35;19.60;;;8.10;;
59587;SDS011;45412;54.472;18.464;2023-02-28T18:00:23;22.10;;;7.70;;
59587;SDS011;45412;54.472;18.464;2023-02-28T18:03:11;16.00;;;6.50;;
59587;SDS011;45412;54.472;18.464;2023-02-28T18:06:01;20.20;;;7.00;;
59587;SDS011;45412;54.472;18.464;2023-02-28T18:08:51;19.30;;;7.10;;
59587;SDS011;45412;54.472;18.464;2023-02-28T18:11:39;18.60;;;7.60;;
59587;SDS011;45412;54.472;18.464;2023-02-28T18:14:35;16.80;;;7.10;;
59587;SDS011;45412;54.472;18.464;2023-02-28T18:17:23;18.60;;;6.00;;
59587;SDS011;45412;54.472;18.464;2023-02-28T18:20:11;17.40;;;6.00;;
59587;SDS011;45412;54.472;18.464;2023-02-28T18:23:00;16.90;;;6.50;;
59587;SDS011;45412;54.472;18.464;2023-02-28T18:25:50;17.80;;;6.90;;
59587;SDS011;45412;54.472;18.464;2023-02-28T18:28:38;15.30;;;6.00;;
59587;SDS011;45412;54.472;18.464;2023-02-28T18:31:29;18.60;;;6.80;;
59587;SDS011;45412;54.472;18.464;2023-02-28T18:34:19;17.80;;;6.90;;
59587;SDS011;45412;54.472;18.464;2023-02-28T18:37:09;15.30;;;6.00;;
59587;SDS011;45412;54.472;18.464;2023-02-28T18:39:58;16.70;;;6.50;;
59587;SDS011;45412;54.472;18.464;2023-02-28T18:42:46;19.10;;;7.10;;
59587;SDS011;45412;54.472;18.464;2023-02-28T18:45:35;17.70;;;7.00;;
59587;SDS011;45412;54.472;18.464;2023-02-28T18:48:25;20.90;;;8.10;;
59587;SDS011;45412;54.472;18.464;2023-02-28T18:51:15;18.00;;;7.50;;
59587;SDS011;45412;54.472;18.464;2023-02-28T18:54:07;24.30;;;8.30;;
59587;SDS011;45412;54.472;18.464;2023-02-28T18:56:55;22.10;;;8.60;;
59587;SDS011;45412;54.472;18.464;2023-02-28T18:59:43;21.10;;;7.70;;
59587;SDS011;45412;54.472;18.464;2023-02-28T19:02:31;24.60;;;9.20;;
59587;SDS011;45412;54.472;18.464;2023-02-28T19:05:19;21.60;;;7.60;;